Time;durP1;ratioP1;P1;durP2;ratioP2;P2;SDS_P1;SDS_P2;PMS_P1;PMS_P2;Temp;Humidity;BMP_temperature;BMP_pressure;BME280_temperature;BME280_humidity;BME280_pressure;Samples;Min_cycle;Max_cycle;Signal;HPM_P1;HPM_P2
2022/04/26 03:37:09;;;;;;;23.60;14.10;;;;;;;7.77;82.90;99857.04;129678;1275;107232;-71
2022/04/26 03:40:14;;;;;;;21.00;14.50;;;;;;;7.72;83.26;99858.40;129560;1277;108670;-71
2022/04/26 03:43:20;;;;;;;20.60;13.20;;;;;;;7.69;83.01;99861.86;129456;1276;108753;-71
2022/04/26 03:46:25;;;;;;;16.50;11.90;;;;;;;7.69;83.17;99867.69;129520;1277;106815;-71
2022/04/26 03:49:31;;;;;;;17.90;13.60;;;;;;;7.68;82.91;99869.40;129537;1276;107853;-71
2022/04/26 03:52:36;;;;;;;20.20;13.40;;;;;;;7.73;83.14;99871.45;129605;1277;107628;-70
2022/04/26 03:55:42;;;;;;;20.60;13.60;;;;;;;7.74;83.04;99870.91;129577;1277;108672;-72
2022/04/26 03:58:48;;;;;;;18.40;13.80;;;;;;;7.77;82.86;99869.09;129432;1276;108759;-71
2022/04/26 04:01:54;;;;;;;18.10;11.80;;;;;;;7.74;82.93;99874.48;129525;1277;107504;-72
2022/04/26 04:04:59;;;;;;;17.00;11.10;;;;;;;7.73;83.14;99873.73;129519;1277;108756;-71
2022/04/26 04:08:05;;;;;;;18.00;12.80;;;;;;;7.71;83.05;99875.15;129514;1277;109076;-72
2022/04/26 04:11:10;;;;;;;16.70;12.30;;;;;;;7.69;83.11;99879.80;129652;1276;107636;-71
2022/04/26 04:14:16;;;;;;;20.50;12.90;;;;;;;7.67;83.09;99884.48;129679;1277;108707;-71
2022/04/26 04:17:21;;;;;;;18.50;12.80;;;;;;;7.68;82.99;99887.82;129403;1277;108788;-72
2022/04/26 04:20:29;;;;;;;16.40;10.70;;;;;;;7.64;82.79;99892.94;129499;1277;108638;-72
2022/04/26 04:23:38;;;;;;;15.60;9.90;;;;;;;7.63;82.73;99894.78;129540;1276;108515;-79
2022/04/26 04:26:44;;;;;;;17.80;11.80;;;;;;;7.66;82.78;99901.40;129491;1277;108717;-70
2022/04/26 04:29:51;;;;;;;16.50;10.70;;;;;;;7.70;82.62;99903.93;129386;1277;109081;-75
2022/04/26 04:32:57;;;;;;;16.60;11.90;;;;;;;7.76;82.63;99911.66;129683;1277;108823;-72
2022/04/26 04:36:02;;;;;;;16.60;12.00;;;;;;;7.76;82.53;99916.09;129495;1277;108616;-72
2022/04/26 04:39:08;;;;;;;14.30;10.10;;;;;;;7.78;82.37;99919.77;129575;1277;107725;-72
2022/04/26 04:42:14;;;;;;;15.90;10.20;;;;;;;7.78;82.43;99921.62;129528;1277;108966;-72
2022/04/26 04:45:20;;;;;;;17.30;12.10;;;;;;;7.77;82.53;99924.89;129577;1276;108786;-74
2022/04/26 04:48:25;;;;;;;18.00;12.00;;;;;;;7.77;82.21;99924.64;129651;1277;108152;-72
2022/04/26 04:51:31;;;;;;;16.10;11.30;;;;;;;7.80;82.00;99931.96;129499;1275;108611;-72
2022/04/26 04:54:36;;;;;;;17.90;11.60;;;;;;;7.84;82.35;99937.10;129530;1277;108861;-72
2022/04/26 04:57:42;;;;;;;16.50;10.90;;;;;;;7.81;82.04;99937.23;129584;1276;108965;-71
2022/04/26 05:00:47;;;;;;;14.00;9.70;;;;;;;7.73;82.21;99942.73;129559;1277;109817;-70
2022/04/26 05:03:53;;;;;;;16.40;11.60;;;;;;;7.75;82.17;99942.96;129525;1277;108683;-71
2022/04/26 05:06:59;;;;;;;16.60;11.70;;;;;;;7.83;82.11;99945.35;129502;1277;108960;-73
2022/04/26 05:10:06;;;;;;;17.70;12.30;;;;;;;7.87;81.70;99950.84;129471;1277;107193;-71
2022/04/26 05:13:11;;;;;;;20.30;13.20;;;;;;;7.80;81.35;99946.92;129489;1277;108729;-70
2022/04/26 05:16:17;;;;;;;21.30;14.70;;;;;;;7.72;81.43;99951.69;129480;1277;107315;-71
2022/04/26 05:19:22;;;;;;;21.20;13.30;;;;;;;7.62;81.28;99954.05;129472;1276;108484;-71
2022/04/26 05:22:28;;;;;;;21.60;13.50;;;;;;;7.55;81.33;99961.77;129525;1276;109200;-70
2022/04/26 05:25:37;;;;;;;27.90;17.90;;;;;;;7.54;81.63;99961.85;129551;1277;108923;-70
2022/04/26 05:28:42;;;;;;;33.20;19.60;;;;;;;7.58;81.57;99966.85;129407;1277;107851;-71
2022/04/26 05:31:48;;;;;;;32.80;21.30;;;;;;;7.58;81.78;99971.43;129379;1276;109542;-71
2022/04/26 05:35:00;;;;;;;35.60;24.40;;;;;;;7.54;81.69;99976.69;129536;1277;108481;-68
2022/04/26 05:38:06;;;;;;;33.80;20.70;;;;;;;7.48;81.78;99977.80;129455;1277;108688;-69
2022/04/26 05:41:13;;;;;;;33.60;19.90;;;;;;;7.44;81.65;99982.73;129430;1277;108854;-70
2022/04/26 05:44:18;;;;;;;37.70;24.40;;;;;;;7.40;81.93;99986.10;129427;1276;109658;-71
2022/04/26 05:47:24;;;;;;;34.10;23.30;;;;;;;7.41;81.73;99989.40;129548;1277;108176;-71
2022/04/26 05:50:30;;;;;;;35.10;24.00;;;;;;;7.48;81.79;99985.91;129601;1277;108699;-70
2022/04/26 05:53:36;;;;;;;32.80;23.80;;;;;;;7.57;81.54;99987.25;129436;1277;108955;-71
2022/04/26 05:56:42;;;;;;;29.70;20.00;;;;;;;7.65;81.55;99991.80;129429;1277;108887;-71
2022/04/26 05:59:47;;;;;;;28.00;18.70;;;;;;;7.74;81.75;99993.98;129383;1276;108793;-69
2022/04/26 06:02:53;;;;;;;29.80;20.40;;;;;;;7.82;81.39;99991.84;129464;1277;108993;-68
2022/04/26 06:05:58;;;;;;;31.30;20.80;;;;;;;7.83;80.94;99997.41;129443;1276;108559;-69
2022/04/26 06:09:04;;;;;;;35.80;21.70;;;;;;;7.88;81.24;99997.34;129491;1277;108712;-69
2022/04/26 06:12:11;;;;;;;29.80;21.50;;;;;;;7.92;81.28;100002.59;129453;1275;108714;-70
2022/04/26 06:15:17;;;;;;;32.00;21.50;;;;;;;7.95;80.78;100003.23;129383;1277;108759;-71
2022/04/26 06:18:23;;;;;;;29.50;19.80;;;;;;;7.97;80.85;100008.58;129643;1277;108762;-71
2022/04/26 06:21:28;;;;;;;26.30;17.40;;;;;;;7.99;80.68;100005.86;129475;1277;108780;-71
2022/04/26 06:24:33;;;;;;;30.30;19.90;;;;;;;8.03;80.78;100010.30;129359;1277;108712;-70
2022/04/26 06:27:39;;;;;;;31.90;21.30;;;;;;;8.07;80.35;100004.02;129421;1277;108592;-71
2022/04/26 06:30:45;;;;;;;31.10;21.70;;;;;;;8.10;80.21;100009.61;129388;1277;108847;-70
2022/04/26 06:33:50;;;;;;;34.90;22.70;;;;;;;8.05;79.97;100011.48;129481;1277;108711;-69
2022/04/26 06:36:56;;;;;;;34.50;23.30;;;;;;;8.05;80.25;100014.00;129475;1277;107187;-69
2022/04/26 06:40:01;;;;;;;31.50;18.80;;;;;;;8.10;80.22;100014.03;129456;1277;108699;-69
2022/04/26 06:43:07;;;;;;;25.70;16.80;;;;;;;8.19;80.21;100013.93;129972;1273;108771;-71
2022/04/26 06:46:12;;;;;;;31.30;20.50;;;;;;;8.34;80.42;100014.12;129834;1272;108612;-71
2022/04/26 06:49:18;;;;;;;31.60;20.00;;;;;;;8.48;79.91;100017.61;129791;1274;108412;-71
2022/04/26 06:52:24;;;;;;;29.20;20.40;;;;;;;8.56;79.81;100022.02;129802;1274;108751;-70
2022/04/26 06:55:29;;;;;;;33.20;21.50;;;;;;;8.64;79.58;100020.20;129908;1274;108851;-70
2022/04/26 06:58:35;;;;;;;30.70;21.80;;;;;;;8.64;79.54;100028.29;129918;1274;108736;-71
2022/04/26 07:01:41;;;;;;;33.80;22.70;;;;;;;8.63;79.26;100032.33;129836;1273;108558;-71
2022/04/26 07:04:46;;;;;;;28.30;18.40;;;;;;;8.62;79.48;100034.02;129808;1274;108957;-70
2022/04/26 07:07:52;;;;;;;30.00;20.10;;;;;;;8.60;79.29;100039.67;129761;1274;108614;-70
2022/04/26 07:10:57;;;;;;;30.10;21.10;;;;;;;8.54;79.44;100038.71;130014;1274;108538;-70
2022/04/26 07:14:03;;;;;;;31.50;22.20;;;;;;;8.59;79.59;100041.94;129795;1274;108639;-70
2022/04/26 07:17:09;;;;;;;30.90;21.50;;;;;;;8.62;79.18;100040.92;129848;1273;108812;-71
2022/04/26 07:20:15;;;;;;;34.40;21.70;;;;;;;8.65;79.44;100044.52;129877;1271;108591;-72
2022/04/26 07:23:21;;;;;;;35.20;21.90;;;;;;;8.70;79.20;100048.89;129976;1274;108228;-71
2022/04/26 07:26:26;;;;;;;29.60;18.80;;;;;;;8.64;78.59;100051.02;129721;1274;108848;-70
2022/04/26 07:29:32;;;;;;;25.30;16.30;;;;;;;8.61;79.13;100055.70;129921;1271;108270;-70
2022/04/26 07:36:00;;;;;;;26.50;17.80;;;;;;;8.96;79.04;100056.69;129863;1271;108706;-70
2022/04/26 07:39:07;;;;;;;29.30;18.80;;;;;;;9.20;78.68;100056.90;130240;1271;107447;-70
2022/04/26 07:42:12;;;;;;;28.30;19.00;;;;;;;9.32;77.97;100062.08;130127;1271;108853;-71
2022/04/26 07:45:18;;;;;;;29.80;19.40;;;;;;;9.49;78.32;100060.31;129839;1271;109820;-70
2022/04/26 07:48:24;;;;;;;27.20;19.10;;;;;;;9.58;78.00;100062.70;129892;1274;108791;-71
2022/04/26 07:51:30;;;;;;;30.60;19.60;;;;;;;9.66;78.17;100069.04;129821;1274;107142;-70
2022/04/26 07:54:36;;;;;;;26.10;16.70;;;;;;;9.68;77.59;100072.77;129854;1271;108814;-70
2022/04/26 07:57:42;;;;;;;23.20;15.70;;;;;;;9.71;77.73;100073.15;129775;1271;108687;-71
2022/04/26 08:00:47;;;;;;;21.60;15.30;;;;;;;9.79;78.01;100077.38;129805;1273;108891;-71
2022/04/26 08:03:52;;;;;;;23.60;16.10;;;;;;;9.80;77.79;100081.13;129907;1272;108691;-70
2022/04/26 08:06:58;;;;;;;26.30;17.50;;;;;;;9.80;78.42;100081.15;129813;1274;107777;-70
2022/04/26 08:10:04;;;;;;;23.20;15.50;;;;;;;9.77;78.47;100088.19;129818;1274;108642;-71
2022/04/26 08:13:10;;;;;;;23.00;14.50;;;;;;;9.78;78.87;100093.25;129828;1274;108712;-71
2022/04/26 08:16:15;;;;;;;22.60;13.80;;;;;;;9.79;78.32;100095.27;129788;1274;108650;-70
2022/04/26 08:19:21;;;;;;;23.20;15.30;;;;;;;9.75;78.39;100096.63;129829;1273;108841;-70
2022/04/26 08:22:26;;;;;;;21.30;14.80;;;;;;;9.80;78.29;100103.04;130013;1274;108939;-70
2022/04/26 08:28:55;;;;;;;21.30;14.80;;;;;;;9.77;77.88;100109.86;129791;1274;108662;-70
2022/04/26 08:32:01;;;;;;;22.80;14.70;;;;;;;9.75;78.27;100108.09;129767;1274;108457;-69
2022/04/26 08:35:10;;;;;;;23.00;15.80;;;;;;;9.74;78.04;100109.48;129764;1274;108702;-70
2022/04/26 08:38:15;;;;;;;19.20;13.30;;;;;;;9.66;77.78;100113.23;129776;1272;108765;-69
2022/04/26 08:41:22;;;;;;;18.80;12.80;;;;;;;9.65;77.85;100113.77;129782;1274;107797;-70
2022/04/26 08:44:30;;;;;;;19.80;13.80;;;;;;;9.68;77.45;100118.74;129895;1272;108636;-70
2022/04/26 08:51:07;;;;;;;19.30;13.80;;;;;;;9.79;77.59;100117.69;129845;1273;108822;-71
2022/04/26 08:54:14;;;;;;;22.90;14.00;;;;;;;9.85;76.51;100125.95;129928;1274;108668;-70
2022/04/26 08:57:19;;;;;;;23.70;15.60;;;;;;;9.70;76.29;100125.86;129793;1274;108755;-70
2022/04/26 09:00:25;;;;;;;23.70;15.60;;;;;;;9.56;76.60;100132.00;129838;1271;109078;-72
2022/04/26 09:03:33;;;;;;;21.90;14.40;;;;;;;9.50;76.79;100137.55;129828;1274;108705;-71
2022/04/26 09:06:40;;;;;;;21.30;13.90;;;;;;;9.57;77.04;100136.74;129820;1274;108497;-70
2022/04/26 09:09:46;;;;;;;25.60;15.10;;;;;;;9.67;76.85;100136.05;129796;1274;108694;-71
2022/04/26 09:13:07;;;;;;;21.80;14.30;;;;;;;9.72;76.47;100143.20;129845;1274;106901;-71
2022/04/26 09:16:21;;;;;;;21.60;15.10;;;;;;;9.82;76.79;100143.46;129928;1272;108560;-71
2022/04/26 09:19:46;;;;;;;26.20;15.90;;;;;;;9.92;76.39;100151.98;129709;1274;108921;-70
2022/04/26 09:23:00;;;;;;;24.20;17.00;;;;;;;9.89;75.42;100153.67;129768;1273;108685;-71
2022/04/26 09:26:10;;;;;;;25.00;16.30;;;;;;;9.97;75.56;100153.98;129702;1274;108864;-70
2022/04/26 09:29:20;;;;;;;28.10;15.90;;;;;;;10.31;75.86;100149.96;129871;1274;107304;-70
2022/04/26 09:32:26;;;;;;;24.80;15.90;;;;;;;10.80;76.18;100157.20;129880;1273;108660;-71
2022/04/26 09:35:32;;;;;;;22.80;16.20;;;;;;;11.14;75.96;100158.15;129889;1273;108480;-71
2022/04/26 09:38:38;;;;;;;23.40;15.60;;;;;;;11.41;75.79;100158.80;129997;1273;107664;-71
2022/04/26 09:41:50;;;;;;;22.50;15.80;;;;;;;11.40;73.63;100159.06;129777;1274;108681;-71
2022/04/26 09:45:06;;;;;;;24.80;18.10;;;;;;;11.27;73.72;100156.30;129876;1274;108712;-70
2022/04/26 09:48:11;;;;;;;27.30;18.00;;;;;;;11.17;72.74;100154.48;129915;1274;107030;-71
2022/04/26 09:51:17;;;;;;;24.90;16.50;;;;;;;11.24;71.77;100160.66;129870;1274;108906;-70
2022/04/26 09:54:23;;;;;;;24.50;16.70;;;;;;;11.29;71.35;100157.48;129844;1273;108800;-69
2022/04/26 09:57:32;;;;;;;21.90;15.80;;;;;;;11.45;73.01;100154.95;129938;1274;107728;-71
2022/04/26 10:00:39;;;;;;;24.80;17.10;;;;;;;11.88;74.15;100147.96;129594;1274;108864;-69
2022/04/26 10:03:51;;;;;;;23.40;15.90;;;;;;;12.09;70.75;100146.98;129765;1274;108579;-70
2022/04/26 10:07:03;;;;;;;20.00;15.20;;;;;;;12.14;72.59;100147.65;129745;1274;108671;-69
2022/04/26 10:10:10;;;;;;;21.50;16.30;;;;;;;12.19;70.72;100149.09;129833;1274;108733;-70
2022/04/26 10:13:36;;;;;;;18.50;14.60;;;;;;;12.16;71.23;100149.36;129932;1273;109214;-69
2022/04/26 10:16:41;;;;;;;18.90;14.10;;;;;;;12.14;70.75;100145.84;129891;1274;108788;-69
2022/04/26 10:19:47;;;;;;;19.30;15.10;;;;;;;12.17;69.89;100149.77;129867;1274;108805;-69
2022/04/26 10:23:01;;;;;;;18.50;14.60;;;;;;;12.13;69.97;100150.09;130128;1268;108788;-69
2022/04/26 10:26:27;;;;;;;20.10;14.40;;;;;;;12.28;70.26;100150.27;130134;1268;108830;-69
2022/04/26 10:29:44;;;;;;;19.60;13.90;;;;;;;12.31;68.63;100156.16;130135;1271;108778;-70
2022/04/26 10:32:50;;;;;;;19.30;14.30;;;;;;;12.41;69.95;100154.55;130048;1270;108669;-69
2022/04/26 10:36:15;;;;;;;20.40;14.90;;;;;;;12.48;68.51;100152.27;130133;1268;108843;-69
2022/04/26 10:39:45;;;;;;;22.00;15.20;;;;;;;12.51;67.63;100154.31;130107;1268;108757;-70
2022/04/26 10:43:07;;;;;;;20.50;15.10;;;;;;;12.53;67.56;100149.63;130133;1268;108765;-69
2022/04/26 10:46:15;;;;;;;18.90;14.20;;;;;;;12.68;67.96;100152.12;130071;1268;109149;-70
2022/04/26 10:49:43;;;;;;;20.30;15.20;;;;;;;12.88;69.44;100150.08;130082;1270;108657;-71
2022/04/26 10:52:49;;;;;;;17.00;13.70;;;;;;;13.10;68.23;100147.48;130150;1268;108771;-69
2022/04/26 10:56:01;;;;;;;19.60;14.00;;;;;;;13.32;68.88;100150.58;130148;1271;109161;-70
2022/04/26 10:59:14;;;;;;;16.40;12.70;;;;;;;13.51;65.88;100156.39;130166;1268;108664;-70
2022/04/26 11:02:22;;;;;;;16.20;13.10;;;;;;;13.59;67.89;100153.70;130174;1268;108607;-70
2022/04/26 11:05:30;;;;;;;15.60;11.70;;;;;;;13.64;62.50;100153.59;130196;1268;108667;-70
2022/04/26 11:08:36;;;;;;;17.00;13.30;;;;;;;13.61;65.63;100150.66;130081;1270;108668;-70
2022/04/26 11:11:52;;;;;;;16.70;13.10;;;;;;;13.62;66.91;100155.21;130180;1268;108569;-70
2022/04/26 11:15:00;;;;;;;15.20;11.80;;;;;;;13.53;64.26;100155.71;130102;1271;108899;-70
2022/04/26 11:18:06;;;;;;;15.90;12.60;;;;;;;13.56;66.75;100157.11;130063;1271;108870;-69
2022/04/26 11:21:14;;;;;;;17.50;12.70;;;;;;;13.68;63.68;100164.20;130084;1271;108898;-70
2022/04/26 11:31:15;;;;;;;16.90;13.00;;;;;;;13.56;65.30;100164.38;130020;1271;108710;-70
2022/04/26 11:34:41;;;;;;;54.60;32.60;;;;;;;13.62;64.38;100164.98;130069;1271;108732;-70
2022/04/26 11:37:47;;;;;;;18.90;14.10;;;;;;;13.70;63.81;100163.95;129993;1271;108841;-69
2022/04/26 11:40:55;;;;;;;16.00;12.10;;;;;;;13.75;64.73;100159.67;130035;1271;108796;-69
2022/04/26 11:44:07;;;;;;;15.80;11.40;;;;;;;13.79;63.60;100160.04;130025;1271;107160;-70
2022/04/26 11:47:14;;;;;;;19.70;15.00;;;;;;;13.82;63.31;100160.13;130160;1271;108865;-71
2022/04/26 11:50:22;;;;;;;98.60;67.60;;;;;;;13.79;64.18;100161.02;130088;1271;107732;-70
2022/04/26 11:53:29;;;;;;;48.60;32.50;;;;;;;13.94;63.79;100160.66;130106;1271;108687;-69
2022/04/26 11:56:34;;;;;;;17.00;12.40;;;;;;;14.00;62.09;100157.48;130104;1272;108648;-70
2022/04/26 11:59:40;;;;;;;14.40;11.50;;;;;;;13.83;61.79;100163.38;130001;1270;108650;-70
2022/04/26 12:02:47;;;;;;;14.70;11.30;;;;;;;13.57;61.43;100165.98;129967;1271;108629;-69
2022/04/26 12:05:57;;;;;;;25.80;18.10;;;;;;;13.27;62.81;100168.73;129974;1271;108675;-68
2022/04/26 12:09:04;;;;;;;14.80;10.90;;;;;;;13.09;62.21;100166.36;129964;1271;108782;-70
2022/04/26 12:12:12;;;;;;;13.40;10.50;;;;;;;12.79;61.31;100174.13;130006;1271;108754;-68
2022/04/26 12:15:26;;;;;;;13.60;10.50;;;;;;;12.58;62.28;100172.67;130056;1268;108952;-69
2022/04/26 12:18:32;;;;;;;10.70;9.30;;;;;;;12.57;63.91;100174.31;130228;1269;108936;-68
2022/04/26 12:21:48;;;;;;;14.60;10.00;;;;;;;12.70;64.23;100172.93;130276;1268;108915;-69
2022/04/26 12:24:53;;;;;;;12.10;9.30;;;;;;;12.79;63.85;100173.23;130132;1268;108294;-70
2022/04/26 12:28:07;;;;;;;14.60;10.80;;;;;;;12.82;63.53;100175.36;130116;1268;108764;-70
2022/04/26 12:31:29;;;;;;;13.30;10.20;;;;;;;12.85;63.19;100171.31;130242;1268;107679;-70
2022/04/26 12:34:35;;;;;;;13.40;10.50;;;;;;;12.82;62.27;100171.27;130263;1268;108859;-69
2022/04/26 12:37:41;;;;;;;28.10;21.90;;;;;;;12.78;62.57;100172.30;130264;1268;108709;-69
2022/04/26 12:41:02;;;;;;;16.60;13.10;;;;;;;12.83;62.84;100169.56;130280;1268;108807;-70
2022/04/26 12:44:11;;;;;;;12.60;10.10;;;;;;;12.92;62.17;100173.94;130280;1268;108720;-69
2022/04/26 12:50:40;;;;;;;12.50;10.00;;;;;;;13.08;62.73;100168.21;130290;1268;106928;-69
2022/04/26 12:53:46;;;;;;;13.00;9.60;;;;;;;13.21;62.47;100167.30;130084;1268;107651;-69
2022/04/26 12:57:01;;;;;;;12.20;9.80;;;;;;;13.27;61.48;100168.55;130238;1268;108658;-69
2022/04/26 13:00:09;;;;;;;12.50;10.00;;;;;;;13.36;61.70;100164.57;130174;1269;108657;-70
2022/04/26 13:03:17;;;;;;;12.60;9.60;;;;;;;13.39;61.39;100164.23;130228;1267;108683;-69
2022/04/26 13:06:25;;;;;;;12.50;9.60;;;;;;;13.44;61.05;100160.25;130235;1268;108727;-70
2022/04/26 13:09:30;;;;;;;11.90;9.10;;;;;;;13.48;60.71;100162.54;130077;1268;109065;-70
2022/04/26 13:12:37;;;;;;;11.70;9.20;;;;;;;13.51;60.98;100167.02;130094;1268;106966;-70
2022/04/26 13:15:44;;;;;;;11.20;8.80;;;;;;;13.59;61.54;100168.02;130122;1268;108812;-70
2022/04/26 13:18:49;;;;;;;10.10;8.30;;;;;;;13.69;60.85;100161.58;130051;1270;108851;-69
2022/04/26 13:21:55;;;;;;;11.40;8.50;;;;;;;13.77;60.97;100160.70;130086;1268;108767;-69
2022/04/26 13:25:01;;;;;;;9.60;7.60;;;;;;;13.78;61.13;100161.05;130082;1268;107268;-70
2022/04/26 13:28:09;;;;;;;8.80;7.60;;;;;;;13.80;60.93;100161.41;130123;1268;108606;-68
2022/04/26 13:31:14;;;;;;;8.80;7.30;;;;;;;13.86;60.76;100161.28;130111;1268;108020;-69
2022/04/26 13:34:20;;;;;;;9.40;7.50;;;;;;;13.87;59.78;100163.33;130129;1268;108653;-69
2022/04/26 13:37:26;;;;;;;9.70;7.70;;;;;;;13.85;60.86;100165.52;129911;1268;345833;-70
2022/04/26 13:40:33;;;;;;;10.50;8.10;;;;;;;13.95;60.77;100162.33;130164;1268;108655;-69
2022/04/26 13:43:41;;;;;;;29.00;19.20;;;;;;;14.02;60.82;100163.15;129993;1269;108694;-69
2022/04/26 13:46:47;;;;;;;14.50;10.30;;;;;;;14.13;60.78;100163.64;130093;1268;108862;-69
2022/04/26 13:49:52;;;;;;;10.20;8.10;;;;;;;14.20;60.31;100159.30;130107;1268;108485;-72
2022/04/26 13:52:58;;;;;;;9.90;8.60;;;;;;;14.14;59.86;100162.77;130118;1271;108866;-69
2022/04/26 13:56:06;;;;;;;11.10;8.00;;;;;;;14.00;57.89;100165.65;130127;1268;108669;-70
2022/04/26 13:59:12;;;;;;;8.80;7.60;;;;;;;13.86;59.93;100169.79;130107;1268;108871;-70
2022/04/26 14:02:19;;;;;;;8.90;7.50;;;;;;;13.95;60.18;100172.83;130224;1268;108750;-70
2022/04/26 14:05:25;;;;;;;8.70;7.50;;;;;;;14.07;59.29;100172.23;130207;1268;108854;-70
2022/04/26 14:08:31;;;;;;;9.00;6.90;;;;;;;14.01;58.67;100177.96;130159;1268;108693;-69
2022/04/26 14:11:36;;;;;;;8.10;7.10;;;;;;;13.87;58.33;100179.00;130102;1268;108705;-69
2022/04/26 14:24:55;;;;;;;9.30;7.30;;;;;;;13.89;59.09;100179.30;130212;1267;108674;-73
2022/04/26 14:28:00;;;;;;;9.10;8.00;;;;;;;13.80;58.55;100177.43;130369;1268;108805;-70
2022/04/26 14:31:06;;;;;;;10.80;8.30;;;;;;;13.66;58.93;100181.53;130209;1268;108635;-69
2022/04/26 14:34:13;;;;;;;10.30;8.00;;;;;;;13.61;59.18;100181.09;130390;1268;108659;-70
2022/04/26 14:37:19;;;;;;;10.20;8.20;;;;;;;13.60;59.31;100183.33;130145;1267;108977;-70
2022/04/26 14:40:25;;;;;;;12.10;8.60;;;;;;;13.54;59.20;100180.73;131342;1268;108861;-69
2022/04/26 14:43:30;;;;;;;10.30;8.00;;;;;;;13.56;59.34;100186.64;130291;1268;109557;-71
2022/04/26 14:46:36;;;;;;;10.50;8.60;;;;;;;13.54;58.44;100182.76;130125;1268;109007;-70
2022/04/26 14:49:42;;;;;;;11.70;8.60;;;;;;;13.44;58.49;100183.38;129914;1270;108833;-69
2022/04/26 14:52:47;;;;;;;10.20;8.10;;;;;;;13.36;58.81;100180.85;130235;1268;109064;-75
2022/04/26 14:55:53;;;;;;;73.20;46.00;;;;;;;13.36;59.09;100179.41;130183;1267;108639;-71
2022/04/26 14:59:01;;;;;;;117.10;72.20;;;;;;;13.39;59.29;100181.22;130160;1267;108839;-70
2022/04/26 15:02:07;;;;;;;29.30;20.50;;;;;;;13.47;59.30;100183.05;130236;1267;108564;-69
2022/04/26 15:05:13;;;;;;;15.40;12.10;;;;;;;13.47;58.85;100185.73;129964;1268;108614;-70
2022/04/26 15:11:43;;;;;;;9.30;7.70;;;;;;;13.28;58.76;100190.09;130452;1267;108620;-69
2022/04/26 15:18:12;;;;;;;9.20;7.20;;;;;;;13.08;58.26;100196.05;130600;1268;108808;-69
2022/04/26 15:21:18;;;;;;;8.80;7.20;;;;;;;12.95;58.16;100196.97;130451;1267;108804;-69
2022/04/26 15:24:24;;;;;;;44.90;30.30;;;;;;;12.84;58.53;100194.48;130307;1268;108792;-70
2022/04/26 15:27:29;;;;;;;19.50;13.60;;;;;;;12.71;58.44;100199.43;130311;1268;108660;-69
2022/04/26 15:30:41;;;;;;;14.60;10.30;;;;;;;12.56;58.92;100198.54;130302;1268;108680;-69
2022/04/26 15:33:46;;;;;;;;;;;;;;;12.47;59.12;100195.10;130242;1268;108922;-71
2022/04/26 15:36:52;;;;;;;10.40;7.90;;;;;;;12.47;59.37;100192.02;130390;1268;108679;-71
2022/04/26 15:39:58;;;;;;;9.30;7.30;;;;;;;12.44;59.11;100191.84;130317;1267;107466;-72
2022/04/26 15:43:07;;;;;;;10.20;8.40;;;;;;;12.36;59.13;100196.46;130368;1268;108864;-73
2022/04/26 15:46:12;;;;;;;8.80;7.10;;;;;;;12.36;59.37;100196.76;130307;1268;108849;-73
2022/04/26 15:49:21;;;;;;;11.10;7.60;;;;;;;12.43;59.74;100194.98;130512;1268;108708;-73
2022/04/26 15:52:26;;;;;;;10.10;7.50;;;;;;;12.50;59.73;100190.52;130214;1268;108720;-73
2022/04/26 15:55:33;;;;;;;12.50;8.60;;;;;;;12.53;59.54;100193.02;130347;1268;109656;-69
2022/04/26 15:58:38;;;;;;;10.80;8.50;;;;;;;12.57;59.86;100194.32;130101;1268;108739;-71
2022/04/26 16:01:45;;;;;;;11.30;8.50;;;;;;;12.60;59.92;100194.73;130316;1268;109176;-72
2022/04/26 16:04:51;;;;;;;10.30;7.80;;;;;;;12.61;59.68;100196.47;130386;1268;108780;-69
2022/04/26 16:07:57;;;;;;;10.80;7.60;;;;;;;12.60;59.66;100196.77;130079;1271;108811;-70
2022/04/26 16:21:12;;;;;;;12.60;10.40;;;;;;;12.42;60.17;100199.77;130074;1268;107283;-68
2022/04/26 16:24:17;;;;;;;11.50;8.50;;;;;;;12.41;60.31;100199.64;130168;1268;108724;-68
2022/04/26 16:27:24;;;;;;;10.10;8.60;;;;;;;12.37;60.42;100197.99;130214;1268;108923;-70
2022/04/26 16:30:31;;;;;;;12.40;9.30;;;;;;;12.33;60.48;100199.83;130149;1268;108592;-71
2022/04/26 16:33:37;;;;;;;13.40;9.60;;;;;;;12.29;60.35;100201.84;130179;1268;108552;-68
2022/04/26 16:36:43;;;;;;;12.30;9.00;;;;;;;12.12;60.45;100205.23;130222;1268;108708;-69
2022/04/26 16:39:49;;;;;;;10.10;8.10;;;;;;;11.98;60.47;100207.63;130165;1268;107621;-68
2022/04/26 16:42:54;;;;;;;10.30;8.50;;;;;;;11.86;60.84;100207.89;130078;1268;108656;-71
2022/04/26 16:46:01;;;;;;;15.90;11.20;;;;;;;11.76;60.92;100212.79;130255;1268;109050;-69
2022/04/26 16:49:06;;;;;;;15.40;10.40;;;;;;;11.72;61.46;100214.45;130247;1267;108727;-73
2022/04/26 16:52:12;;;;;;;11.50;9.50;;;;;;;11.73;61.38;100216.71;130402;1268;108740;-69
2022/04/26 16:55:18;;;;;;;11.20;8.90;;;;;;;11.66;61.33;100212.91;130214;1267;108522;-69
2022/04/26 16:58:23;;;;;;;12.70;9.10;;;;;;;11.66;61.54;100207.46;130043;1267;108731;-69
2022/04/26 17:01:29;;;;;;;13.00;10.40;;;;;;;11.66;61.58;100208.89;130259;1268;108812;-69
2022/04/26 17:04:34;;;;;;;12.60;11.30;;;;;;;11.60;61.44;100211.27;130151;1268;108703;-71
2022/04/26 17:07:40;;;;;;;13.90;10.60;;;;;;;11.53;61.51;100219.83;130401;1268;107785;-70
2022/04/26 17:10:48;;;;;;;10.90;9.60;;;;;;;11.49;61.75;100217.08;130375;1268;107108;-70
2022/04/26 17:13:53;;;;;;;12.30;9.80;;;;;;;11.46;61.47;100221.80;130158;1268;108677;-70
2022/04/26 17:16:59;;;;;;;12.60;10.60;;;;;;;11.43;61.94;100224.83;130086;1268;108779;-71
2022/04/26 17:20:07;;;;;;;11.80;9.90;;;;;;;11.40;61.85;100222.79;130031;1268;108749;-69
2022/04/26 17:23:14;;;;;;;10.90;8.80;;;;;;;11.42;62.10;100225.96;130109;1268;108925;-68
2022/04/26 17:26:20;;;;;;;9.40;7.00;;;;;;;11.45;62.31;100227.30;130106;1268;108706;-70
2022/04/26 17:29:26;;;;;;;8.10;5.90;;;;;;;11.45;62.54;100228.18;130447;1267;108706;-74
2022/04/26 17:32:32;;;;;;;6.30;4.60;;;;;;;11.44;62.88;100232.39;130333;1268;108905;-69
2022/04/26 17:35:37;;;;;;;7.10;5.40;;;;;;;11.46;63.00;100237.50;130298;1270;108650;-70
2022/04/26 17:38:43;;;;;;;6.70;5.00;;;;;;;11.50;63.01;100244.91;130263;1268;108836;-73
2022/04/26 17:41:49;;;;;;;6.50;5.10;;;;;;;11.54;63.44;100246.24;130316;1269;108764;-72
2022/04/26 17:44:55;;;;;;;6.00;5.00;;;;;;;11.56;63.42;100249.79;130309;1265;108925;-68
2022/04/26 17:48:01;;;;;;;5.80;4.90;;;;;;;11.58;63.61;100251.72;130208;1268;108914;-71
2022/04/26 17:51:06;;;;;;;7.50;5.40;;;;;;;11.57;63.76;100252.89;130288;1270;108733;-70
2022/04/26 17:57:35;;;;;;;8.80;5.40;;;;;;;11.46;63.99;100254.83;130080;1268;108666;-69
2022/04/26 18:00:41;;;;;;;6.00;5.10;;;;;;;11.38;63.92;100261.11;130104;1268;108844;-72
2022/04/26 18:03:47;;;;;;;5.70;5.00;;;;;;;11.30;63.70;100266.61;130312;1268;108881;-69
2022/04/26 18:06:53;;;;;;;5.10;4.40;;;;;;;11.23;64.22;100267.96;130092;1268;108896;-70
2022/04/26 18:09:59;;;;;;;6.60;5.00;;;;;;;11.19;64.41;100275.67;130178;1268;109537;-71
2022/04/26 18:13:05;;;;;;;6.80;5.00;;;;;;;11.14;64.62;100279.71;130414;1268;108688;-73
2022/04/26 18:16:10;;;;;;;6.00;4.60;;;;;;;11.10;64.44;100283.05;130297;1268;108633;-75
2022/04/26 18:19:16;;;;;;;5.20;4.20;;;;;;;11.06;64.72;100285.20;130288;1268;108694;-79
2022/04/26 18:22:21;;;;;;;6.30;4.90;;;;;;;11.04;64.97;100288.93;130342;1268;108922;-71
2022/04/26 18:28:49;;;;;;;7.60;6.00;;;;;;;11.05;65.01;100303.67;130204;1268;108971;-69
2022/04/26 18:31:55;;;;;;;7.40;6.00;;;;;;;11.03;65.01;100306.14;130209;1268;108836;-70